sensor_id;sensor_type;location;lat;lon;timestamp;pressure;altitude;pressure_sealevel;temperature;humidity
61478;BME280;47345;52.334;10.392;2022-12-15T00:02:47;99718.50;;;-6.84;72.07
61478;BME280;47345;52.334;10.392;2022-12-15T00:05:36;99719.83;;;-6.87;71.99
61478;BME280;47345;52.334;10.392;2022-12-15T00:08:24;99726.55;;;-6.91;72.04
61478;BME280;47345;52.334;10.392;2022-12-15T00:11:12;99732.98;;;-6.94;72.06
61478;BME280;47345;52.334;10.392;2022-12-15T00:14:01;99738.71;;;-6.97;72.00
61478;BME280;47345;52.334;10.392;2022-12-15T00:16:50;99747.20;;;-6.94;72.25
61478;BME280;47345;52.334;10.392;2022-12-15T00:19:38;99752.20;;;-6.93;72.14
61478;BME280;47345;52.334;10.392;2022-12-15T00:22:26;99756.48;;;-6.91;71.78
61478;BME280;47345;52.334;10.392;2022-12-15T00:25:14;99757.88;;;-6.89;71.81
61478;BME280;47345;52.334;10.392;2022-12-15T00:28:03;99756.98;;;-6.86;71.87
61478;BME280;47345;52.334;10.392;2022-12-15T00:30:51;99758.64;;;-6.80;72.24
61478;BME280;47345;52.334;10.392;2022-12-15T00:33:40;99761.08;;;-6.72;72.35
61478;BME280;47345;52.334;10.392;2022-12-15T00:36:29;99764.73;;;-6.67;72.46
61478;BME280;47345;52.334;10.392;2022-12-15T00:39:18;99765.25;;;-6.62;72.35
61478;BME280;47345;52.334;10.392;2022-12-15T00:41:49;99773.53;;;-6.59;72.19
61478;BME280;47345;52.334;10.392;2022-12-15T00:44:20;99774.02;;;-6.58;72.23
61478;BME280;47345;52.334;10.392;2022-12-15T00:46:51;99771.59;;;-6.57;72.28
61478;BME280;47345;52.334;10.392;2022-12-15T00:49:26;99771.57;;;-6.55;72.52
61478;BME280;47345;52.334;10.392;2022-12-15T00:52:16;99767.52;;;-6.52;72.23
61478;BME280;47345;52.334;10.392;2022-12-15T00:55:06;99763.38;;;-6.47;72.45
61478;BME280;47345;52.334;10.392;2022-12-15T00:57:55;99758.04;;;-6.47;72.15
61478;BME280;47345;52.334;10.392;2022-12-15T01:00:43;99760.23;;;-6.45;72.17
61478;BME280;47345;52.334;10.392;2022-12-15T01:03:32;99758.63;;;-6.45;72.25
61478;BME280;47345;52.334;10.392;2022-12-15T01:06:21;99764.98;;;-6.45;72.22
61478;BME280;47345;52.334;10.392;2022-12-15T01:09:10;99764.30;;;-6.45;72.13
61478;BME280;47345;52.334;10.392;2022-12-15T01:11:59;99764.77;;;-6.46;72.04
61478;BME280;47345;52.334;10.392;2022-12-15T01:14:46;99770.77;;;-6.46;71.73
61478;BME280;47345;52.334;10.392;2022-12-15T01:17:34;99774.27;;;-6.50;71.27
61478;BME280;47345;52.334;10.392;2022-12-15T01:20:22;99774.84;;;-6.55;71.03
61478;BME280;47345;52.334;10.392;2022-12-15T01:22:54;99779.46;;;-6.60;70.84
61478;BME280;47345;52.334;10.392;2022-12-15T01:25:25;99777.14;;;-6.64;71.49
61478;BME280;47345;52.334;10.392;2022-12-15T01:27:57;99779.95;;;-6.64;71.68
61478;BME280;47345;52.334;10.392;2022-12-15T01:30:28;99781.52;;;-6.66;71.32
61478;BME280;47345;52.334;10.392;2022-12-15T01:32:59;99777.04;;;-6.68;71.39
61478;BME280;47345;52.334;10.392;2022-12-15T01:35:29;99773.21;;;-6.69;71.29
61478;BME280;47345;52.334;10.392;2022-12-15T01:38:00;99777.36;;;-6.67;71.81
61478;BME280;47345;52.334;10.392;2022-12-15T01:40:31;99777.43;;;-6.68;71.28
61478;BME280;47345;52.334;10.392;2022-12-15T01:43:20;99778.75;;;-6.72;70.86
61478;BME280;47345;52.334;10.392;2022-12-15T01:46:01;99776.65;;;-6.72;71.00
61478;BME280;47345;52.334;10.392;2022-12-15T01:48:42;99777.55;;;-6.72;70.92
61478;BME280;47345;52.334;10.392;2022-12-15T01:51:24;99780.20;;;-6.74;71.14
61478;BME280;47345;52.334;10.392;2022-12-15T01:54:01;99787.81;;;-6.74;71.02
61478;BME280;47345;52.334;10.392;2022-12-15T01:56:44;99790.98;;;-6.76;70.70
61478;BME280;47345;52.334;10.392;2022-12-15T01:59:20;99791.86;;;-6.78;70.85
61478;BME280;47345;52.334;10.392;2022-12-15T02:01:52;99800.55;;;-6.80;70.82
61478;BME280;47345;52.334;10.392;2022-12-15T02:04:23;99809.52;;;-6.84;70.44
61478;BME280;47345;52.334;10.392;2022-12-15T02:06:55;99809.16;;;-6.87;70.72
61478;BME280;47345;52.334;10.392;2022-12-15T02:09:27;99807.98;;;-6.90;70.30
61478;BME280;47345;52.334;10.392;2022-12-15T02:12:07;99804.54;;;-6.93;70.15
61478;BME280;47345;52.334;10.392;2022-12-15T02:14:55;99809.52;;;-6.96;70.02
61478;BME280;47345;52.334;10.392;2022-12-15T02:17:36;99800.84;;;-7.01;69.88
61478;BME280;47345;52.334;10.392;2022-12-15T02:20:46;99799.71;;;-7.04;69.84
61478;BME280;47345;52.334;10.392;2022-12-15T02:29:39;99791.05;;;-7.00;71.59
61478;BME280;47345;52.334;10.392;2022-12-15T02:32:23;99789.11;;;-6.96;72.47
61478;BME280;47345;52.334;10.392;2022-12-15T02:35:00;99799.21;;;-6.91;73.08
61478;BME280;47345;52.334;10.392;2022-12-15T02:37:33;99801.19;;;-6.85;73.41
61478;BME280;47345;52.334;10.392;2022-12-15T02:40:08;99808.62;;;-6.77;73.68
61478;BME280;47345;52.334;10.392;2022-12-15T02:42:43;99803.98;;;-6.72;73.31
61478;BME280;47345;52.334;10.392;2022-12-15T02:45:17;99804.20;;;-6.68;73.21
61478;BME280;47345;52.334;10.392;2022-12-15T02:47:55;99810.06;;;-6.66;73.19
61478;BME280;47345;52.334;10.392;2022-12-15T02:50:45;99816.83;;;-6.64;73.21
61478;BME280;47345;52.334;10.392;2022-12-15T02:53:30;99818.09;;;-6.64;73.12
61478;BME280;47345;52.334;10.392;2022-12-15T02:56:12;99817.80;;;-6.65;72.44
61478;BME280;47345;52.334;10.392;2022-12-15T02:58:53;99828.70;;;-6.68;72.17
61478;BME280;47345;52.334;10.392;2022-12-15T03:01:45;99826.34;;;-6.70;72.30
61478;BME280;47345;52.334;10.392;2022-12-15T03:04:19;99823.37;;;-6.71;72.60
61478;BME280;47345;52.334;10.392;2022-12-15T03:06:56;99830.94;;;-6.70;72.81
61478;BME280;47345;52.334;10.392;2022-12-15T03:09:29;99829.55;;;-6.68;72.96
61478;BME280;47345;52.334;10.392;2022-12-15T03:12:00;99829.45;;;-6.67;73.03
61478;BME280;47345;52.334;10.392;2022-12-15T03:14:31;99832.27;;;-6.67;73.01
61478;BME280;47345;52.334;10.392;2022-12-15T03:17:02;99840.42;;;-6.66;73.15
61478;BME280;47345;52.334;10.392;2022-12-15T03:19:36;99841.77;;;-6.63;73.16
61478;BME280;47345;52.334;10.392;2022-12-15T03:22:06;99846.10;;;-6.59;73.38
61478;BME280;47345;52.334;10.392;2022-12-15T03:24:37;99844.22;;;-6.58;73.53
61478;BME280;47345;52.334;10.392;2022-12-15T03:27:07;99841.52;;;-6.57;73.55
61478;BME280;47345;52.334;10.392;2022-12-15T03:29:39;99846.59;;;-6.56;73.87
61478;BME280;47345;52.334;10.392;2022-12-15T03:32:09;99846.27;;;-6.55;74.24
61478;BME280;47345;52.334;10.392;2022-12-15T03:34:40;99839.65;;;-6.51;74.81
61478;BME280;47345;52.334;10.392;2022-12-15T03:37:11;99843.86;;;-6.46;74.95
61478;BME280;47345;52.334;10.392;2022-12-15T03:39:41;99837.67;;;-6.42;75.25
61478;BME280;47345;52.334;10.392;2022-12-15T03:42:13;99838.13;;;-6.36;75.23
61478;BME280;47345;52.334;10.392;2022-12-15T03:45:04;99842.85;;;-6.31;75.35
61478;BME280;47345;52.334;10.392;2022-12-15T03:47:35;99846.89;;;-6.28;75.09
61478;BME280;47345;52.334;10.392;2022-12-15T03:50:11;99852.77;;;-6.26;75.13
61478;BME280;47345;52.334;10.392;2022-12-15T03:52:42;99859.48;;;-6.24;75.12
61478;BME280;47345;52.334;10.392;2022-12-15T03:55:12;99862.31;;;-6.21;75.04
61478;BME280;47345;52.334;10.392;2022-12-15T03:57:44;99862.64;;;-6.18;74.96
61478;BME280;47345;52.334;10.392;2022-12-15T04:00:16;99860.45;;;-6.18;75.06
61478;BME280;47345;52.334;10.392;2022-12-15T04:02:48;99859.45;;;-6.18;74.81
61478;BME280;47345;52.334;10.392;2022-12-15T04:05:21;99868.83;;;-6.18;74.79
61478;BME280;47345;52.334;10.392;2022-12-15T04:07:54;99875.52;;;-6.19;74.75
61478;BME280;47345;52.334;10.392;2022-12-15T04:10:27;99878.98;;;-6.18;74.40
61478;BME280;47345;52.334;10.392;2022-12-15T04:13:04;99876.14;;;-6.21;74.36
61478;BME280;47345;52.334;10.392;2022-12-15T04:15:37;99875.80;;;-6.19;74.43
61478;BME280;47345;52.334;10.392;2022-12-15T04:18:09;99882.09;;;-6.19;74.42
61478;BME280;47345;52.334;10.392;2022-12-15T04:20:40;99884.54;;;-6.21;74.64
61478;BME280;47345;52.334;10.392;2022-12-15T04:23:11;99882.14;;;-6.18;74.94
61478;BME280;47345;52.334;10.392;2022-12-15T04:25:41;99881.10;;;-6.16;75.10
61478;BME280;47345;52.334;10.392;2022-12-15T04:28:30;99888.34;;;-6.13;75.25
61478;BME280;47345;52.334;10.392;2022-12-15T04:31:21;99895.48;;;-6.10;75.22
61478;BME280;47345;52.334;10.392;2022-12-15T04:34:13;99903.23;;;-6.04;75.72
61478;BME280;47345;52.334;10.392;2022-12-15T04:37:04;99904.39;;;-5.99;75.92
61478;BME280;47345;52.334;10.392;2022-12-15T04:39:54;99900.83;;;-5.94;75.97
61478;BME280;47345;52.334;10.392;2022-12-15T04:42:45;99902.06;;;-5.87;76.18
61478;BME280;47345;52.334;10.392;2022-12-15T04:45:34;99901.11;;;-5.82;76.22
61478;BME280;47345;52.334;10.392;2022-12-15T04:48:22;99903.55;;;-5.79;76.22
61478;BME280;47345;52.334;10.392;2022-12-15T04:51:09;99893.34;;;-5.78;76.30
61478;BME280;47345;52.334;10.392;2022-12-15T04:53:57;99886.45;;;-5.76;76.52
61478;BME280;47345;52.334;10.392;2022-12-15T04:56:46;99884.27;;;-5.75;76.35
61478;BME280;47345;52.334;10.392;2022-12-15T04:59:34;99889.23;;;-5.75;76.25
61478;BME280;47345;52.334;10.392;2022-12-15T05:02:22;99892.98;;;-5.76;76.31
61478;BME280;47345;52.334;10.392;2022-12-15T05:05:11;99904.39;;;-5.76;76.13
61478;BME280;47345;52.334;10.392;2022-12-15T05:07:59;99902.16;;;-5.77;76.14
61478;BME280;47345;52.334;10.392;2022-12-15T05:10:47;99898.35;;;-5.78;76.04
61478;BME280;47345;52.334;10.392;2022-12-15T05:13:36;99899.85;;;-5.82;75.79
61478;BME280;47345;52.334;10.392;2022-12-15T05:16:24;99907.54;;;-5.84;75.65
61478;BME280;47345;52.334;10.392;2022-12-15T05:19:13;99908.61;;;-5.86;75.81
61478;BME280;47345;52.334;10.392;2022-12-15T05:22:02;99908.48;;;-5.87;75.78
61478;BME280;47345;52.334;10.392;2022-12-15T05:24:50;99908.34;;;-5.88;75.84
61478;BME280;47345;52.334;10.392;2022-12-15T05:27:38;99906.33;;;-5.89;75.83
61478;BME280;47345;52.334;10.392;2022-12-15T05:30:26;99907.78;;;-5.90;75.91
61478;BME280;47345;52.334;10.392;2022-12-15T05:33:14;99910.00;;;-5.90;75.77
61478;BME280;47345;52.334;10.392;2022-12-15T05:35:45;99913.64;;;-5.92;75.86
61478;BME280;47345;52.334;10.392;2022-12-15T05:38:16;99911.65;;;-5.94;75.96
61478;BME280;47345;52.334;10.392;2022-12-15T05:40:46;99913.52;;;-5.95;75.83
61478;BME280;47345;52.334;10.392;2022-12-15T05:43:17;99919.11;;;-5.96;75.86
61478;BME280;47345;52.334;10.392;2022-12-15T05:45:54;99921.28;;;-5.97;75.91
61478;BME280;47345;52.334;10.392;2022-12-15T05:48:24;99925.98;;;-5.98;75.99
61478;BME280;47345;52.334;10.392;2022-12-15T05:50:56;99925.64;;;-5.98;76.19
61478;BME280;47345;52.334;10.392;2022-12-15T05:53:27;99924.03;;;-6.00;76.33
61478;BME280;47345;52.334;10.392;2022-12-15T05:56:02;99922.02;;;-5.99;76.73
61478;BME280;47345;52.334;10.392;2022-12-15T05:58:33;99927.37;;;-5.97;76.69
61478;BME280;47345;52.334;10.392;2022-12-15T06:01:15;99930.61;;;-5.96;76.83
61478;BME280;47345;52.334;10.392;2022-12-15T06:03:46;99931.91;;;-5.94;76.76
61478;BME280;47345;52.334;10.392;2022-12-15T06:06:17;99933.58;;;-5.93;76.93
61478;BME280;47345;52.334;10.392;2022-12-15T06:08:48;99941.99;;;-5.91;76.92
61478;BME280;47345;52.334;10.392;2022-12-15T06:11:20;99950.84;;;-5.91;76.94
61478;BME280;47345;52.334;10.392;2022-12-15T06:13:50;99949.86;;;-5.89;77.16
61478;BME280;47345;52.334;10.392;2022-12-15T06:16:22;99951.76;;;-5.89;77.32
61478;BME280;47345;52.334;10.392;2022-12-15T06:18:57;99950.12;;;-5.88;77.40
61478;BME280;47345;52.334;10.392;2022-12-15T06:21:31;99950.38;;;-5.87;77.41
61478;BME280;47345;52.334;10.392;2022-12-15T06:24:04;99960.29;;;-5.86;77.48
61478;BME280;47345;52.334;10.392;2022-12-15T06:26:36;99963.14;;;-5.87;77.50
61478;BME280;47345;52.334;10.392;2022-12-15T06:29:09;99967.21;;;-5.84;77.78
61478;BME280;47345;52.334;10.392;2022-12-15T06:31:40;99967.30;;;-5.83;77.93
61478;BME280;47345;52.334;10.392;2022-12-15T06:34:14;99967.76;;;-5.82;77.88
61478;BME280;47345;52.334;10.392;2022-12-15T06:36:45;99969.59;;;-5.81;77.83
61478;BME280;47345;52.334;10.392;2022-12-15T06:39:16;99973.04;;;-5.80;77.95
61478;BME280;47345;52.334;10.392;2022-12-15T06:41:47;99973.13;;;-5.79;77.72
61478;BME280;47345;52.334;10.392;2022-12-15T06:44:19;99971.27;;;-5.80;77.67
61478;BME280;47345;52.334;10.392;2022-12-15T06:46:50;99973.91;;;-5.79;77.43
61478;BME280;47345;52.334;10.392;2022-12-15T06:49:21;99978.41;;;-5.80;77.53
61478;BME280;47345;52.334;10.392;2022-12-15T06:51:51;99981.20;;;-5.80;77.36
61478;BME280;47345;52.334;10.392;2022-12-15T06:54:22;99992.98;;;-5.80;77.22
61478;BME280;47345;52.334;10.392;2022-12-15T06:56:53;99996.21;;;-5.81;77.07
61478;BME280;47345;52.334;10.392;2022-12-15T06:59:24;99990.35;;;-5.81;76.98
61478;BME280;47345;52.334;10.392;2022-12-15T07:01:55;99990.69;;;-5.80;77.18
61478;BME280;47345;52.334;10.392;2022-12-15T07:04:26;99996.58;;;-5.79;77.20
61478;BME280;47345;52.334;10.392;2022-12-15T07:06:58;99997.23;;;-5.78;77.17
61478;BME280;47345;52.334;10.392;2022-12-15T07:09:29;100006.20;;;-5.76;77.03
61478;BME280;47345;52.334;10.392;2022-12-15T07:12:00;100007.80;;;-5.77;76.75
61478;BME280;47345;52.334;10.392;2022-12-15T07:14:30;100008.20;;;-5.77;76.70
61478;BME280;47345;52.334;10.392;2022-12-15T07:17:01;100008.36;;;-5.79;76.72
61478;BME280;47345;52.334;10.392;2022-12-15T07:19:31;100007.59;;;-5.79;76.96
61478;BME280;47345;52.334;10.392;2022-12-15T07:22:02;100008.95;;;-5.78;76.94
61478;BME280;47345;52.334;10.392;2022-12-15T07:24:33;100010.79;;;-5.79;77.07
61478;BME280;47345;52.334;10.392;2022-12-15T07:27:03;100012.33;;;-5.78;77.42
61478;BME280;47345;52.334;10.392;2022-12-15T07:29:33;100023.27;;;-5.77;77.49
61478;BME280;47345;52.334;10.392;2022-12-15T07:32:04;100033.34;;;-5.76;77.60
61478;BME280;47345;52.334;10.392;2022-12-15T07:34:35;100037.30;;;-5.76;77.74
61478;BME280;47345;52.334;10.392;2022-12-15T07:37:06;100041.48;;;-5.76;77.76
61478;BME280;47345;52.334;10.392;2022-12-15T07:39:36;100042.87;;;-5.75;77.94
61478;BME280;47345;52.334;10.392;2022-12-15T07:42:07;100043.30;;;-5.74;78.09
61478;BME280;47345;52.334;10.392;2022-12-15T07:44:37;100047.26;;;-5.74;78.21
61478;BME280;47345;52.334;10.392;2022-12-15T07:47:08;100054.66;;;-5.74;78.14
61478;BME280;47345;52.334;10.392;2022-12-15T07:49:39;100062.17;;;-5.74;78.41
61478;BME280;47345;52.334;10.392;2022-12-15T07:52:10;100058.13;;;-5.75;78.46
61478;BME280;47345;52.334;10.392;2022-12-15T07:54:42;100057.98;;;-5.75;78.66
61478;BME280;47345;52.334;10.392;2022-12-15T07:57:13;100064.64;;;-5.74;79.04
61478;BME280;47345;52.334;10.392;2022-12-15T07:59:44;100064.98;;;-5.72;79.16
61478;BME280;47345;52.334;10.392;2022-12-15T08:02:15;100071.37;;;-5.69;79.20
61478;BME280;47345;52.334;10.392;2022-12-15T08:04:45;100064.46;;;-5.67;79.40
61478;BME280;47345;52.334;10.392;2022-12-15T08:07:17;100070.79;;;-5.64;79.48
61478;BME280;47345;52.334;10.392;2022-12-15T08:09:48;100072.52;;;-5.61;79.51
61478;BME280;47345;52.334;10.392;2022-12-15T08:12:19;100074.42;;;-5.58;79.38
61478;BME280;47345;52.334;10.392;2022-12-15T08:14:49;100078.44;;;-5.55;79.47
61478;BME280;47345;52.334;10.392;2022-12-15T08:17:20;100085.33;;;-5.52;79.64
61478;BME280;47345;52.334;10.392;2022-12-15T08:19:51;100083.56;;;-5.50;79.76
61478;BME280;47345;52.334;10.392;2022-12-15T08:22:26;100086.13;;;-5.49;79.87
61478;BME280;47345;52.334;10.392;2022-12-15T08:24:57;100088.69;;;-5.45;79.87
61478;BME280;47345;52.334;10.392;2022-12-15T08:27:28;100093.48;;;-5.42;80.04
61478;BME280;47345;52.334;10.392;2022-12-15T08:29:59;100096.29;;;-5.40;80.02
61478;BME280;47345;52.334;10.392;2022-12-15T08:32:29;100101.94;;;-5.37;80.23
61478;BME280;47345;52.334;10.392;2022-12-15T08:35:00;100104.64;;;-5.35;80.18
61478;BME280;47345;52.334;10.392;2022-12-15T08:37:30;100107.45;;;-5.32;80.40
61478;BME280;47345;52.334;10.392;2022-12-15T08:40:01;100101.98;;;-5.30;80.29
61478;BME280;47345;52.334;10.392;2022-12-15T08:42:34;100095.55;;;-5.30;80.46
61478;BME280;47345;52.334;10.392;2022-12-15T08:45:08;100098.71;;;-5.25;80.58
61478;BME280;47345;52.334;10.392;2022-12-15T08:47:40;100101.33;;;-5.22;80.77
61478;BME280;47345;52.334;10.392;2022-12-15T08:50:10;100107.16;;;-5.20;80.88
61478;BME280;47345;52.334;10.392;2022-12-15T08:52:41;100109.75;;;-5.16;80.93
61478;BME280;47345;52.334;10.392;2022-12-15T08:55:34;100111.36;;;-5.12;81.00
61478;BME280;47345;52.334;10.392;2022-12-15T08:58:04;100113.78;;;-5.09;81.16
61478;BME280;47345;52.334;10.392;2022-12-15T09:00:35;100108.54;;;-5.06;81.25
61478;BME280;47345;52.334;10.392;2022-12-15T09:03:06;100107.49;;;-5.01;81.47
61478;BME280;47345;52.334;10.392;2022-12-15T09:05:37;100113.11;;;-4.98;81.46
61478;BME280;47345;52.334;10.392;2022-12-15T09:08:08;100113.92;;;-4.94;81.60
61478;BME280;47345;52.334;10.392;2022-12-15T09:10:41;100117.14;;;-4.93;81.85
61478;BME280;47345;52.334;10.392;2022-12-15T09:13:12;100117.14;;;-4.90;81.82
61478;BME280;47345;52.334;10.392;2022-12-15T09:15:42;100118.50;;;-4.87;82.08
61478;BME280;47345;52.334;10.392;2022-12-15T09:18:34;100112.02;;;-4.84;82.11
61478;BME280;47345;52.334;10.392;2022-12-15T09:21:05;100104.86;;;-4.81;82.21
61478;BME280;47345;52.334;10.392;2022-12-15T09:23:38;100109.08;;;-4.78;82.50
61478;BME280;47345;52.334;10.392;2022-12-15T09:26:11;100115.36;;;-4.75;82.73
61478;BME280;47345;52.334;10.392;2022-12-15T09:28:43;100115.40;;;-4.71;82.91
61478;BME280;47345;52.334;10.392;2022-12-15T09:31:20;100117.46;;;-4.67;83.02
61478;BME280;47345;52.334;10.392;2022-12-15T09:33:55;100120.05;;;-4.64;83.01
61478;BME280;47345;52.334;10.392;2022-12-15T09:36:26;100120.77;;;-4.60;83.20
61478;BME280;47345;52.334;10.392;2022-12-15T09:38:58;100122.95;;;-4.56;83.36
61478;BME280;47345;52.334;10.392;2022-12-15T09:41:32;100119.77;;;-4.52;83.32
61478;BME280;47345;52.334;10.392;2022-12-15T09:44:06;100119.83;;;-4.49;83.37
61478;BME280;47345;52.334;10.392;2022-12-15T09:46:51;100120.99;;;-4.45;83.42
61478;BME280;47345;52.334;10.392;2022-12-15T09:49:37;100127.67;;;-4.42;83.50
61478;BME280;47345;52.334;10.392;2022-12-15T09:52:13;100130.37;;;-4.37;83.56
61478;BME280;47345;52.334;10.392;2022-12-15T09:54:46;100131.89;;;-4.34;83.71
61478;BME280;47345;52.334;10.392;2022-12-15T09:57:24;100135.88;;;-4.31;83.81
61478;BME280;47345;52.334;10.392;2022-12-15T10:00:04;100135.23;;;-4.27;83.97
61478;BME280;47345;52.334;10.392;2022-12-15T10:03:07;100141.75;;;-4.22;84.21
61478;BME280;47345;52.334;10.392;2022-12-15T10:05:50;100138.60;;;-4.19;84.21
61478;BME280;47345;52.334;10.392;2022-12-15T10:08:47;100143.03;;;-4.14;84.34
61478;BME280;47345;52.334;10.392;2022-12-15T10:11:29;100144.90;;;-4.10;84.36
61478;BME280;47345;52.334;10.392;2022-12-15T10:14:12;100145.41;;;-4.06;84.48
61478;BME280;47345;52.334;10.392;2022-12-15T10:16:51;100147.20;;;-4.02;84.48
61478;BME280;47345;52.334;10.392;2022-12-15T10:19:28;100142.98;;;-3.98;84.46
61478;BME280;47345;52.334;10.392;2022-12-15T10:22:00;100144.56;;;-3.93;84.52
61478;BME280;47345;52.334;10.392;2022-12-15T10:24:32;100148.17;;;-3.90;84.60
61478;BME280;47345;52.334;10.392;2022-12-15T10:27:33;100150.84;;;-3.85;84.92
61478;BME280;47345;52.334;10.392;2022-12-15T10:30:10;100149.39;;;-3.81;84.84
61478;BME280;47345;52.334;10.392;2022-12-15T10:32:49;100147.20;;;-3.76;85.14
61478;BME280;47345;52.334;10.392;2022-12-15T10:35:23;100151.22;;;-3.70;85.12
61478;BME280;47345;52.334;10.392;2022-12-15T10:37:58;100156.02;;;-3.66;85.14
61478;BME280;47345;52.334;10.392;2022-12-15T10:40:44;100152.68;;;-3.62;85.32
61478;BME280;47345;52.334;10.392;2022-12-15T10:43:30;100157.13;;;-3.58;85.11
61478;BME280;47345;52.334;10.392;2022-12-15T10:46:06;100153.22;;;-3.54;85.09
61478;BME280;47345;52.334;10.392;2022-12-15T10:48:40;100160.63;;;-3.49;85.25
61478;BME280;47345;52.334;10.392;2022-12-15T10:51:23;100162.52;;;-3.44;85.38
61478;BME280;47345;52.334;10.392;2022-12-15T10:54:02;100166.16;;;-3.38;85.51
61478;BME280;47345;52.334;10.392;2022-12-15T10:56:34;100171.60;;;-3.33;85.43
61478;BME280;47345;52.334;10.392;2022-12-15T10:59:28;100167.56;;;-3.27;85.50
61478;BME280;47345;52.334;10.392;2022-12-15T11:02:21;100165.34;;;-3.22;85.53
61478;BME280;47345;52.334;10.392;2022-12-15T11:04:57;100163.52;;;-3.18;85.45
61478;BME280;47345;52.334;10.392;2022-12-15T11:07:33;100162.29;;;-3.14;85.35
61478;BME280;47345;52.334;10.392;2022-12-15T11:10:16;100159.65;;;-3.08;85.32
61478;BME280;47345;52.334;10.392;2022-12-15T11:12:56;100164.18;;;-3.02;85.34
61478;BME280;47345;52.334;10.392;2022-12-15T11:15:49;100164.37;;;-2.98;85.21
61478;BME280;47345;52.334;10.392;2022-12-15T11:18:28;100162.20;;;-2.94;85.08
61478;BME280;47345;52.334;10.392;2022-12-15T11:21:06;100162.61;;;-2.90;84.96
61478;BME280;47345;52.334;10.392;2022-12-15T11:23:46;100161.98;;;-2.87;85.05
61478;BME280;47345;52.334;10.392;2022-12-15T11:26:33;100169.73;;;-2.84;84.99
61478;BME280;47345;52.334;10.392;2022-12-15T11:29:12;100171.36;;;-2.82;85.06
61478;BME280;47345;52.334;10.392;2022-12-15T11:31:46;100170.52;;;-2.81;84.84
61478;BME280;47345;52.334;10.392;2022-12-15T11:34:20;100165.48;;;-2.78;84.94
61478;BME280;47345;52.334;10.392;2022-12-15T11:37:13;100167.38;;;-2.77;84.76
61478;BME280;47345;52.334;10.392;2022-12-15T11:39:53;100166.45;;;-2.75;84.78
61478;BME280;47345;52.334;10.392;2022-12-15T11:42:38;100158.30;;;-2.76;84.76
61478;BME280;47345;52.334;10.392;2022-12-15T11:45:20;100162.19;;;-2.73;84.93
61478;BME280;47345;52.334;10.392;2022-12-15T11:47:55;100161.95;;;-2.70;84.76
61478;BME280;47345;52.334;10.392;2022-12-15T11:50:30;100163.20;;;-2.68;85.05
61478;BME280;47345;52.334;10.392;2022-12-15T11:53:16;100165.69;;;-2.66;84.79
61478;BME280;47345;52.334;10.392;2022-12-15T11:55:53;100166.36;;;-2.64;84.77
61478;BME280;47345;52.334;10.392;2022-12-15T11:58:52;100166.43;;;-2.62;85.04
61478;BME280;47345;52.334;10.392;2022-12-15T12:01:42;100165.52;;;-2.60;85.02
61478;BME280;47345;52.334;10.392;2022-12-15T12:04:29;100163.11;;;-2.57;85.11
61478;BME280;47345;52.334;10.392;2022-12-15T12:07:12;100158.20;;;-2.54;85.25
61478;BME280;47345;52.334;10.392;2022-12-15T12:09:50;100156.67;;;-2.51;85.27
61478;BME280;47345;52.334;10.392;2022-12-15T12:12:32;100162.50;;;-2.46;85.22
61478;BME280;47345;52.334;10.392;2022-12-15T12:15:18;100162.38;;;-2.43;85.06
61478;BME280;47345;52.334;10.392;2022-12-15T12:17:54;100161.91;;;-2.39;85.16
61478;BME280;47345;52.334;10.392;2022-12-15T12:20:28;100159.91;;;-2.37;84.94
61478;BME280;47345;52.334;10.392;2022-12-15T12:23:08;100151.84;;;-2.34;84.99
61478;BME280;47345;52.334;10.392;2022-12-15T12:25:46;100149.27;;;-2.32;85.06
61478;BME280;47345;52.334;10.392;2022-12-15T12:28:24;100149.18;;;-2.29;84.95
61478;BME280;47345;52.334;10.392;2022-12-15T12:30:59;100147.95;;;-2.25;85.13
61478;BME280;47345;52.334;10.392;2022-12-15T12:33:35;100149.98;;;-2.22;85.04
61478;BME280;47345;52.334;10.392;2022-12-15T12:36:11;100155.69;;;-2.20;84.81
61478;BME280;47345;52.334;10.392;2022-12-15T12:38:46;100156.52;;;-2.17;85.07
61478;BME280;47345;52.334;10.392;2022-12-15T12:41:28;100156.87;;;-2.13;84.95
61478;BME280;47345;52.334;10.392;2022-12-15T12:44:09;100156.15;;;-2.11;85.04
61478;BME280;47345;52.334;10.392;2022-12-15T12:46:46;100151.54;;;-2.07;85.09
61478;BME280;47345;52.334;10.392;2022-12-15T12:49:23;100155.08;;;-2.05;84.99
61478;BME280;47345;52.334;10.392;2022-12-15T12:51:57;100154.27;;;-2.04;84.87
61478;BME280;47345;52.334;10.392;2022-12-15T12:54:51;100155.18;;;-2.02;84.73
61478;BME280;47345;52.334;10.392;2022-12-15T12:57:38;100155.70;;;-2.00;84.71
61478;BME280;47345;52.334;10.392;2022-12-15T13:00:21;100162.54;;;-1.98;84.71
61478;BME280;47345;52.334;10.392;2022-12-15T13:03:16;100163.23;;;-1.98;84.76
61478;BME280;47345;52.334;10.392;2022-12-15T13:05:49;100158.59;;;-1.96;84.66
61478;BME280;47345;52.334;10.392;2022-12-15T13:08:49;100155.42;;;-1.95;84.91
61478;BME280;47345;52.334;10.392;2022-12-15T13:14:50;100155.23;;;-1.91;84.69
61478;BME280;47345;52.334;10.392;2022-12-15T13:17:31;100155.45;;;-1.89;84.70
61478;BME280;47345;52.334;10.392;2022-12-15T13:20:26;100148.03;;;-1.88;84.33
61478;BME280;47345;52.334;10.392;2022-12-15T13:26:12;100152.13;;;-1.90;84.17
61478;BME280;47345;52.334;10.392;2022-12-15T13:28:49;100151.05;;;-1.90;84.46
61478;BME280;47345;52.334;10.392;2022-12-15T13:31:29;100151.06;;;-1.90;84.13
61478;BME280;47345;52.334;10.392;2022-12-15T13:34:22;100148.00;;;-1.90;84.30
61478;BME280;47345;52.334;10.392;2022-12-15T13:36:55;100156.24;;;-1.90;84.18
61478;BME280;47345;52.334;10.392;2022-12-15T13:39:34;100154.30;;;-1.90;84.10
61478;BME280;47345;52.334;10.392;2022-12-15T13:42:43;100151.67;;;-1.89;83.85
61478;BME280;47345;52.334;10.392;2022-12-15T13:45:50;100147.08;;;-1.89;83.90
61478;BME280;47345;52.334;10.392;2022-12-15T13:48:27;100152.41;;;-1.91;83.63
61478;BME280;47345;52.334;10.392;2022-12-15T13:51:20;100152.58;;;-1.93;83.89
61478;BME280;47345;52.334;10.392;2022-12-15T13:53:56;100154.01;;;-1.95;83.58
61478;BME280;47345;52.334;10.392;2022-12-15T13:56:47;100154.55;;;-1.97;84.00